Bemidji, Minnesota
Current Conditions -  °F | °C
As of 3:32 AM on Thursday 18 Dec 2014 (Local Time) from KBJI Reporting Station
Clear Clear  
Wind Chill: -17°   Ceiling: Unl
Heat Index: -17°   Visibility: 10mi
Dew Point: -19°   Wind: 0mph
Humidity: 85%   Direction: NA
Pressure: 30.26"   Gusts: NA
Location:  47.47°N, 94.88°W
Report Text: KBJI 180932Z AUTO 00000KT 10SM CLR M16/M18 A3026 RMK AO2 T11651185
Loading
Personal Weather Stations






























Interactive Weather Map New forecast layout! Learn more

10-Day Weather Forecast

Advertisements
Track Severe Weather on mobile